sensor_id;sensor_type;location;lat;lon;timestamp;pressure;altitude;pressure_sealevel;temperature;humidity
58070;BME280;43863;52.256;21.048;2022-08-19T00:00:22;100229.63;;;25.07;61.51
58070;BME280;43863;52.256;21.048;2022-08-19T00:02:53;100233.44;;;25.06;61.19
58070;BME280;43863;52.256;21.048;2022-08-19T00:05:22;100232.59;;;25.05;61.06
58070;BME280;43863;52.256;21.048;2022-08-19T00:07:54;100233.69;;;25.04;61.28
58070;BME280;43863;52.256;21.048;2022-08-19T00:10:22;100229.06;;;25.05;61.36
58070;BME280;43863;52.256;21.048;2022-08-19T00:12:52;100232.59;;;25.05;61.15
58070;BME280;43863;52.256;21.048;2022-08-19T00:15:23;100234.25;;;25.01;61.43
58070;BME280;43863;52.256;21.048;2022-08-19T00:17:51;100235.34;;;25.00;61.30
58070;BME280;43863;52.256;21.048;2022-08-19T00:20:21;100227.19;;;24.95;61.41
58070;BME280;43863;52.256;21.048;2022-08-19T00:22:51;100228.81;;;24.96;61.53
58070;BME280;43863;52.256;21.048;2022-08-19T00:25:21;100234.78;;;24.93;61.63
58070;BME280;43863;52.256;21.048;2022-08-19T00:27:57;100235.09;;;24.91;61.61
58070;BME280;43863;52.256;21.048;2022-08-19T00:30:26;100239.41;;;24.92;61.83
58070;BME280;43863;52.256;21.048;2022-08-19T00:32:55;100234.53;;;24.89;61.60
58070;BME280;43863;52.256;21.048;2022-08-19T00:35:24;100240.25;;;24.88;62.00
58070;BME280;43863;52.256;21.048;2022-08-19T00:37:53;100228.84;;;24.86;61.66
58070;BME280;43863;52.256;21.048;2022-08-19T00:40:21;100241.88;;;24.84;61.88
58070;BME280;43863;52.256;21.048;2022-08-19T00:42:51;100243.78;;;24.83;61.55
58070;BME280;43863;52.256;21.048;2022-08-19T00:45:25;100240.00;;;24.79;62.14
58070;BME280;43863;52.256;21.048;2022-08-19T00:47:53;100234.00;;;24.77;61.96
58070;BME280;43863;52.256;21.048;2022-08-19T00:50:22;100242.41;;;24.75;62.16
58070;BME280;43863;52.256;21.048;2022-08-19T00:52:50;100242.41;;;24.75;62.48
58070;BME280;43863;52.256;21.048;2022-08-19T00:55:22;100234.81;;;24.72;62.34
58070;BME280;43863;52.256;21.048;2022-08-19T00:57:58;100238.63;;;24.71;62.20
58070;BME280;43863;52.256;21.048;2022-08-19T01:00:30;100236.22;;;24.70;62.20
58070;BME280;43863;52.256;21.048;2022-08-19T01:02:58;100240.28;;;24.67;62.42
58070;BME280;43863;52.256;21.048;2022-08-19T01:05:28;100239.19;;;24.63;62.65
58070;BME280;43863;52.256;21.048;2022-08-19T01:07:59;100237.56;;;24.62;62.51
58070;BME280;43863;52.256;21.048;2022-08-19T01:10:32;100243.00;;;24.62;62.35
58070;BME280;43863;52.256;21.048;2022-08-19T01:13:04;100248.69;;;24.61;62.71
58070;BME280;43863;52.256;21.048;2022-08-19T01:15:35;100251.94;;;24.58;62.87
58070;BME280;43863;52.256;21.048;2022-08-19T01:18:08;100246.78;;;24.56;62.98
58070;BME280;43863;52.256;21.048;2022-08-19T01:20:41;100246.53;;;24.52;63.14
58070;BME280;43863;52.256;21.048;2022-08-19T01:23:09;100254.13;;;24.50;63.15
58070;BME280;43863;52.256;21.048;2022-08-19T01:25:52;100243.25;;;24.50;63.15
58070;BME280;43863;52.256;21.048;2022-08-19T01:28:47;100245.16;;;24.50;63.21
58070;BME280;43863;52.256;21.048;2022-08-19T01:31:21;100238.38;;;24.47;63.26
58070;BME280;43863;52.256;21.048;2022-08-19T01:33:57;100239.72;;;24.45;63.26
58070;BME280;43863;52.256;21.048;2022-08-19T01:36:42;100245.69;;;24.42;63.41
58070;BME280;43863;52.256;21.048;2022-08-19T01:39:16;100245.97;;;24.40;63.60
58070;BME280;43863;52.256;21.048;2022-08-19T01:41:46;100251.66;;;24.39;63.39
58070;BME280;43863;52.256;21.048;2022-08-19T01:44:15;100252.75;;;24.38;63.61
58070;BME280;43863;52.256;21.048;2022-08-19T01:46:46;100251.38;;;24.35;63.36
58070;BME280;43863;52.256;21.048;2022-08-19T01:49:17;100235.88;;;24.30;63.30
58070;BME280;43863;52.256;21.048;2022-08-19T01:51:45;100247.56;;;24.31;63.62
58070;BME280;43863;52.256;21.048;2022-08-19T01:54:14;100248.66;;;24.30;63.74
58070;BME280;43863;52.256;21.048;2022-08-19T01:57:00;100239.44;;;24.26;64.08
58070;BME280;43863;52.256;21.048;2022-08-19T01:59:31;100231.53;;;24.19;63.84
58070;BME280;43863;52.256;21.048;2022-08-19T02:02:00;100236.69;;;24.16;64.07
58070;BME280;43863;52.256;21.048;2022-08-19T02:04:28;100231.53;;;24.09;64.16
58070;BME280;43863;52.256;21.048;2022-08-19T02:06:57;100233.41;;;24.03;64.45
58070;BME280;43863;52.256;21.048;2022-08-19T02:09:25;100230.16;;;24.01;64.34
58070;BME280;43863;52.256;21.048;2022-08-19T02:11:53;100232.03;;;24.01;64.56
58070;BME280;43863;52.256;21.048;2022-08-19T02:14:21;100232.88;;;23.96;64.60
58070;BME280;43863;52.256;21.048;2022-08-19T02:16:49;100227.69;;;23.95;64.67
58070;BME280;43863;52.256;21.048;2022-08-19T02:19:17;100229.31;;;23.96;64.75
58070;BME280;43863;52.256;21.048;2022-08-19T02:21:45;100222.25;;;23.90;64.92
58070;BME280;43863;52.256;21.048;2022-08-19T02:24:15;100223.88;;;23.86;64.90
58070;BME280;43863;52.256;21.048;2022-08-19T02:26:43;100224.66;;;23.81;64.94
58070;BME280;43863;52.256;21.048;2022-08-19T02:29:12;100217.34;;;23.76;65.22
58070;BME280;43863;52.256;21.048;2022-08-19T02:32:05;100213.03;;;23.75;65.31
58070;BME280;43863;52.256;21.048;2022-08-19T02:34:33;100218.97;;;23.72;65.32
58070;BME280;43863;52.256;21.048;2022-08-19T02:37:06;100221.13;;;23.70;65.22
58070;BME280;43863;52.256;21.048;2022-08-19T02:40:30;100221.88;;;23.66;65.62
58070;BME280;43863;52.256;21.048;2022-08-19T02:43:07;100215.09;;;23.63;65.42
58070;BME280;43863;52.256;21.048;2022-08-19T02:45:38;100216.47;;;23.60;65.79
58070;BME280;43863;52.256;21.048;2022-08-19T02:48:10;100223.47;;;23.56;65.79
58070;BME280;43863;52.256;21.048;2022-08-19T02:50:50;100219.69;;;23.52;65.81
58070;BME280;43863;52.256;21.048;2022-08-19T02:53:27;100221.59;;;23.52;65.99
58070;BME280;43863;52.256;21.048;2022-08-19T02:55:57;100228.34;;;23.49;66.09
58070;BME280;43863;52.256;21.048;2022-08-19T02:58:25;100226.16;;;23.46;66.15
58070;BME280;43863;52.256;21.048;2022-08-19T03:00:56;100230.78;;;23.46;66.35
58070;BME280;43863;52.256;21.048;2022-08-19T03:03:24;100219.63;;;23.42;66.42
58070;BME280;43863;52.256;21.048;2022-08-19T03:06:12;100220.72;;;23.41;66.33
58070;BME280;43863;52.256;21.048;2022-08-19T03:08:44;100217.97;;;23.36;66.30
58070;BME280;43863;52.256;21.048;2022-08-19T03:11:18;100225.59;;;23.39;66.64
58070;BME280;43863;52.256;21.048;2022-08-19T03:13:47;100221.50;;;23.36;66.64
58070;BME280;43863;52.256;21.048;2022-08-19T03:16:19;100220.97;;;23.34;66.75
58070;BME280;43863;52.256;21.048;2022-08-19T03:18:48;100217.69;;;23.32;66.71
58070;BME280;43863;52.256;21.048;2022-08-19T03:21:24;100220.94;;;23.29;66.88
58070;BME280;43863;52.256;21.048;2022-08-19T03:24:00;100212.25;;;23.27;66.89
58070;BME280;43863;52.256;21.048;2022-08-19T03:26:29;100207.34;;;23.24;67.22
58070;BME280;43863;52.256;21.048;2022-08-19T03:28:57;100213.06;;;23.23;67.05
58070;BME280;43863;52.256;21.048;2022-08-19T03:31:32;100204.63;;;23.19;67.07
58070;BME280;43863;52.256;21.048;2022-08-19T03:34:24;100222.25;;;23.22;67.25
58070;BME280;43863;52.256;21.048;2022-08-19T03:36:58;100222.81;;;23.24;67.32
58070;BME280;43863;52.256;21.048;2022-08-19T03:39:27;100228.50;;;23.27;67.14
58070;BME280;43863;52.256;21.048;2022-08-19T03:41:55;100228.50;;;23.27;66.99
58070;BME280;43863;52.256;21.048;2022-08-19T03:44:46;100237.19;;;23.29;66.86
58070;BME280;43863;52.256;21.048;2022-08-19T03:47:14;100237.44;;;23.28;67.02
58070;BME280;43863;52.256;21.048;2022-08-19T03:49:43;100236.63;;;23.27;67.12
58070;BME280;43863;52.256;21.048;2022-08-19T03:52:12;100240.69;;;23.25;67.30
58070;BME280;43863;52.256;21.048;2022-08-19T03:54:41;100244.75;;;23.27;67.42
58070;BME280;43863;52.256;21.048;2022-08-19T03:57:09;100246.13;;;23.30;67.43
58070;BME280;43863;52.256;21.048;2022-08-19T03:59:38;100248.88;;;23.35;67.29
58070;BME280;43863;52.256;21.048;2022-08-19T04:02:10;100246.22;;;23.40;67.34
58070;BME280;43863;52.256;21.048;2022-08-19T04:04:41;100239.97;;;23.45;67.07
58070;BME280;43863;52.256;21.048;2022-08-19T04:07:12;100242.16;;;23.48;67.15
58070;BME280;43863;52.256;21.048;2022-08-19T04:09:43;100248.41;;;23.53;67.08
58070;BME280;43863;52.256;21.048;2022-08-19T04:12:11;100242.75;;;23.60;66.87
58070;BME280;43863;52.256;21.048;2022-08-19T04:14:39;100243.06;;;23.64;66.59
58070;BME280;43863;52.256;21.048;2022-08-19T04:17:07;100243.34;;;23.67;66.31
58070;BME280;43863;52.256;21.048;2022-08-19T04:19:36;100244.72;;;23.70;66.44
58070;BME280;43863;52.256;21.048;2022-08-19T04:22:04;100236.59;;;23.75;66.46
58070;BME280;43863;52.256;21.048;2022-08-19T04:24:34;100232.00;;;23.80;66.06
58070;BME280;43863;52.256;21.048;2022-08-19T04:27:02;100232.03;;;23.86;66.05
58070;BME280;43863;52.256;21.048;2022-08-19T04:29:30;100229.59;;;23.94;66.03
58070;BME280;43863;52.256;21.048;2022-08-19T04:31:59;100239.38;;;24.00;65.84
58070;BME280;43863;52.256;21.048;2022-08-19T04:34:36;100231.78;;;24.07;65.67
58070;BME280;43863;52.256;21.048;2022-08-19T04:37:53;100233.69;;;24.22;65.24
58070;BME280;43863;52.256;21.048;2022-08-19T04:40:20;100239.16;;;24.27;65.36
58070;BME280;43863;52.256;21.048;2022-08-19T04:43:07;100246.78;;;24.46;65.18
58070;BME280;43863;52.256;21.048;2022-08-19T04:45:36;100251.41;;;24.66;64.51
58070;BME280;43863;52.256;21.048;2022-08-19T04:48:11;100245.69;;;24.83;64.06
58070;BME280;43863;52.256;21.048;2022-08-19T04:50:58;100248.13;;;25.00;63.54
58070;BME280;43863;52.256;21.048;2022-08-19T04:53:28;100240.75;;;25.10;63.23
58070;BME280;43863;52.256;21.048;2022-08-19T04:58:36;100242.56;;;25.40;62.31
58070;BME280;43863;52.256;21.048;2022-08-19T05:01:06;100246.06;;;25.56;61.98
58070;BME280;43863;52.256;21.048;2022-08-19T05:03:37;100244.38;;;25.65;61.67
58070;BME280;43863;52.256;21.048;2022-08-19T05:06:13;100242.41;;;25.81;61.40
58070;BME280;43863;52.256;21.048;2022-08-19T05:08:43;100248.06;;;26.00;60.63
58070;BME280;43863;52.256;21.048;2022-08-19T05:11:31;100240.59;;;26.16;60.39
58070;BME280;43863;52.256;21.048;2022-08-19T05:14:01;100248.50;;;26.18;60.03
58070;BME280;43863;52.256;21.048;2022-08-19T05:16:29;100234.88;;;26.18;59.25
58070;BME280;43863;52.256;21.048;2022-08-19T05:18:58;100237.06;;;26.16;58.95
58070;BME280;43863;52.256;21.048;2022-08-19T05:21:46;100233.03;;;26.03;58.81
58070;BME280;43863;52.256;21.048;2022-08-19T05:24:40;100238.47;;;26.03;59.02
58070;BME280;43863;52.256;21.048;2022-08-19T05:27:39;100246.69;;;25.98;59.12
58070;BME280;43863;52.256;21.048;2022-08-19T05:30:17;100258.16;;;25.95;59.45
58070;BME280;43863;52.256;21.048;2022-08-19T05:33:06;100255.69;;;25.93;59.58
58070;BME280;43863;52.256;21.048;2022-08-19T05:35:39;100256.22;;;26.00;59.79
58070;BME280;43863;52.256;21.048;2022-08-19T05:38:08;100257.81;;;26.06;59.23
58070;BME280;43863;52.256;21.048;2022-08-19T05:40:38;100256.91;;;26.16;58.93
58070;BME280;43863;52.256;21.048;2022-08-19T05:43:07;100261.44;;;26.31;58.78
58070;BME280;43863;52.256;21.048;2022-08-19T05:45:40;100264.31;;;26.50;58.08
58070;BME280;43863;52.256;21.048;2022-08-19T05:48:14;100274.66;;;26.53;57.82
58070;BME280;43863;52.256;21.048;2022-08-19T05:50:57;100278.34;;;26.67;57.83
58070;BME280;43863;52.256;21.048;2022-08-19T05:53:27;100268.53;;;26.71;57.28
58070;BME280;43863;52.256;21.048;2022-08-19T06:06:22;100263.75;;;27.16;56.19
58070;BME280;43863;52.256;21.048;2022-08-19T06:09:24;100260.91;;;27.27;56.37
58070;BME280;43863;52.256;21.048;2022-08-19T06:11:58;100254.22;;;27.38;55.86
58070;BME280;43863;52.256;21.048;2022-08-19T06:14:29;100242.47;;;27.42;55.76
58070;BME280;43863;52.256;21.048;2022-08-19T06:17:26;100241.50;;;27.52;55.04
58070;BME280;43863;52.256;21.048;2022-08-19T06:20:24;100234.59;;;27.60;54.83
58070;BME280;43863;52.256;21.048;2022-08-19T06:26:24;100242.84;;;27.79;54.58
58070;BME280;43863;52.256;21.048;2022-08-19T07:06:43;100266.75;;;28.76;52.15
58070;BME280;43863;52.256;21.048;2022-08-19T07:09:26;100269.41;;;28.95;51.80
58070;BME280;43863;52.256;21.048;2022-08-19T07:12:14;100270.59;;;29.22;51.30
58070;BME280;43863;52.256;21.048;2022-08-19T07:14:43;100259.78;;;29.17;51.53
58070;BME280;43863;52.256;21.048;2022-08-19T07:17:14;100267.97;;;29.17;51.82
58070;BME280;43863;52.256;21.048;2022-08-19T07:19:45;100280.00;;;29.16;51.31
58070;BME280;43863;52.256;21.048;2022-08-19T07:22:14;100285.88;;;29.09;51.26
58070;BME280;43863;52.256;21.048;2022-08-19T07:24:45;100282.63;;;29.07;51.19
58070;BME280;43863;52.256;21.048;2022-08-19T07:27:22;100273.13;;;29.18;51.30
58070;BME280;43863;52.256;21.048;2022-08-19T07:36:16;100256.00;;;29.13;51.33
58070;BME280;43863;52.256;21.048;2022-08-19T07:38:47;100251.03;;;29.15;51.34
58070;BME280;43863;52.256;21.048;2022-08-19T07:44:26;100260.34;;;29.28;51.28
58070;BME280;43863;52.256;21.048;2022-08-19T07:46:57;100261.78;;;29.39;51.12
58070;BME280;43863;52.256;21.048;2022-08-19T07:49:28;100260.97;;;29.38;51.10
58070;BME280;43863;52.256;21.048;2022-08-19T07:52:35;100269.38;;;29.42;51.06
58070;BME280;43863;52.256;21.048;2022-08-19T07:58:34;100274.25;;;29.59;50.78
58070;BME280;43863;52.256;21.048;2022-08-19T08:01:04;100261.78;;;29.66;50.56
58070;BME280;43863;52.256;21.048;2022-08-19T08:03:33;100265.66;;;29.65;50.47
58070;BME280;43863;52.256;21.048;2022-08-19T08:06:23;100264.31;;;29.63;50.48
58070;BME280;43863;52.256;21.048;2022-08-19T08:09:12;100258.63;;;29.59;50.94
58070;BME280;43863;52.256;21.048;2022-08-19T08:11:55;100255.09;;;29.59;50.99
58070;BME280;43863;52.256;21.048;2022-08-19T08:14:44;100256.13;;;29.63;51.04
58070;BME280;43863;52.256;21.048;2022-08-19T08:17:28;100255.56;;;29.61;51.57
58070;BME280;43863;52.256;21.048;2022-08-19T08:20:19;100258.63;;;29.59;51.10
58070;BME280;43863;52.256;21.048;2022-08-19T08:22:47;100257.63;;;29.55;51.08
58070;BME280;43863;52.256;21.048;2022-08-19T08:25:35;100252.06;;;29.46;50.75
58070;BME280;43863;52.256;21.048;2022-08-19T08:28:04;100254.56;;;29.43;50.87
58070;BME280;43863;52.256;21.048;2022-08-19T08:34:00;100269.19;;;29.52;50.93
58070;BME280;43863;52.256;21.048;2022-08-19T08:36:29;100269.81;;;29.63;50.62
58070;BME280;43863;52.256;21.048;2022-08-19T08:39:26;100267.97;;;29.72;51.00
58070;BME280;43863;52.256;21.048;2022-08-19T08:52:29;100244.56;;;30.02;50.71
58070;BME280;43863;52.256;21.048;2022-08-19T08:55:07;100254.50;;;30.12;50.69
58070;BME280;43863;52.256;21.048;2022-08-19T09:00:55;100272.72;;;30.16;50.58
58070;BME280;43863;52.256;21.048;2022-08-19T09:03:27;100278.69;;;30.32;50.34
58070;BME280;43863;52.256;21.048;2022-08-19T09:06:09;100292.16;;;30.43;50.61
58070;BME280;43863;52.256;21.048;2022-08-19T09:09:06;100287.34;;;30.48;50.38
58070;BME280;43863;52.256;21.048;2022-08-19T09:15:06;100287.84;;;30.28;49.47
58070;BME280;43863;52.256;21.048;2022-08-19T09:18:16;100284.13;;;30.24;49.50
58070;BME280;43863;52.256;21.048;2022-08-19T09:21:11;100283.59;;;30.22;49.56
58070;BME280;43863;52.256;21.048;2022-08-19T09:23:44;100270.50;;;30.19;49.50
58070;BME280;43863;52.256;21.048;2022-08-19T09:26:20;100277.06;;;30.31;49.36
58070;BME280;43863;52.256;21.048;2022-08-19T09:28:51;100283.13;;;30.42;49.43
58070;BME280;43863;52.256;21.048;2022-08-19T09:31:23;100277.53;;;30.47;49.18
58070;BME280;43863;52.256;21.048;2022-08-19T09:33:52;100288.84;;;30.54;49.43
58070;BME280;43863;52.256;21.048;2022-08-19T09:36:27;100274.06;;;30.64;49.37
58070;BME280;43863;52.256;21.048;2022-08-19T09:39:03;100271.66;;;30.63;49.29
58070;BME280;43863;52.256;21.048;2022-08-19T09:41:44;100279.19;;;30.57;48.95
58070;BME280;43863;52.256;21.048;2022-08-19T09:44:23;100282.13;;;30.60;48.92
58070;BME280;43863;52.256;21.048;2022-08-19T09:46:53;100284.09;;;30.69;48.87
58070;BME280;43863;52.256;21.048;2022-08-19T09:49:21;100285.59;;;30.75;48.52
58070;BME280;43863;52.256;21.048;2022-08-19T09:51:52;100293.53;;;30.76;48.31
58070;BME280;43863;52.256;21.048;2022-08-19T09:54:23;100289.66;;;30.77;48.11
58070;BME280;43863;52.256;21.048;2022-08-19T09:57:17;100283.25;;;30.82;47.80
58070;BME280;43863;52.256;21.048;2022-08-19T09:59:45;100283.66;;;30.75;47.77
58070;BME280;43863;52.256;21.048;2022-08-19T10:02:16;100281.63;;;30.81;47.59
58070;BME280;43863;52.256;21.048;2022-08-19T10:04:48;100282.59;;;30.85;47.33
58070;BME280;43863;52.256;21.048;2022-08-19T10:07:36;100279.91;;;30.94;47.00
58070;BME280;43863;52.256;21.048;2022-08-19T10:10:29;100274.19;;;31.04;46.51
58070;BME280;43863;52.256;21.048;2022-08-19T10:13:00;100265.94;;;31.04;46.16
58070;BME280;43863;52.256;21.048;2022-08-19T10:19:14;100264.19;;;31.08;45.77
58070;BME280;43863;52.256;21.048;2022-08-19T10:21:53;100255.34;;;31.20;45.61
58070;BME280;43863;52.256;21.048;2022-08-19T10:24:27;100252.97;;;31.27;45.42
58070;BME280;43863;52.256;21.048;2022-08-19T10:26:56;100248.59;;;31.26;44.92
58070;BME280;43863;52.256;21.048;2022-08-19T10:29:27;100240.56;;;31.30;45.28
58070;BME280;43863;52.256;21.048;2022-08-19T10:32:04;100251.41;;;31.35;45.04
58070;BME280;43863;52.256;21.048;2022-08-19T10:34:37;100255.81;;;31.44;44.77
58070;BME280;43863;52.256;21.048;2022-08-19T10:37:17;100250.47;;;31.48;44.39
58070;BME280;43863;52.256;21.048;2022-08-19T10:39:59;100249.50;;;31.53;44.31
58070;BME280;43863;52.256;21.048;2022-08-19T10:42:27;100253.25;;;31.57;44.16
58070;BME280;43863;52.256;21.048;2022-08-19T10:44:55;100238.84;;;31.51;44.14
58070;BME280;43863;52.256;21.048;2022-08-19T10:47:25;100242.91;;;31.54;43.62
58070;BME280;43863;52.256;21.048;2022-08-19T10:49:58;100256.00;;;31.57;43.36
58070;BME280;43863;52.256;21.048;2022-08-19T10:52:48;100245.50;;;31.67;43.57
58070;BME280;43863;52.256;21.048;2022-08-19T10:55:24;100244.38;;;31.68;43.14
58070;BME280;43863;52.256;21.048;2022-08-19T10:58:14;100255.38;;;31.77;42.88
58070;BME280;43863;52.256;21.048;2022-08-19T11:00:43;100237.75;;;31.69;42.74
58070;BME280;43863;52.256;21.048;2022-08-19T11:03:11;100239.19;;;31.67;42.66
58070;BME280;43863;52.256;21.048;2022-08-19T11:08:39;100242.28;;;31.74;42.36
58070;BME280;43863;52.256;21.048;2022-08-19T11:11:15;100234.88;;;31.75;42.36
58070;BME280;43863;52.256;21.048;2022-08-19T11:13:48;100227.72;;;31.73;42.95
58070;BME280;43863;52.256;21.048;2022-08-19T11:16:24;100230.31;;;31.79;42.68
58070;BME280;43863;52.256;21.048;2022-08-19T11:18:56;100226.78;;;31.87;42.68
58070;BME280;43863;52.256;21.048;2022-08-19T11:21:31;100216.78;;;31.91;42.06
58070;BME280;43863;52.256;21.048;2022-08-19T11:24:05;100210.84;;;31.98;42.06
58070;BME280;43863;52.256;21.048;2022-08-19T11:26:40;100220.84;;;32.02;42.00
58070;BME280;43863;52.256;21.048;2022-08-19T11:29:10;100204.84;;;32.04;41.86
58070;BME280;43863;52.256;21.048;2022-08-19T11:31:42;100204.66;;;32.09;41.81
58070;BME280;43863;52.256;21.048;2022-08-19T11:34:15;100216.28;;;32.06;42.26
58070;BME280;43863;52.256;21.048;2022-08-19T11:36:45;100205.31;;;32.06;42.22
58070;BME280;43863;52.256;21.048;2022-08-19T11:39:18;100214.38;;;32.07;42.03
58070;BME280;43863;52.256;21.048;2022-08-19T11:41:47;100195.44;;;32.23;41.74
58070;BME280;43863;52.256;21.048;2022-08-19T11:44:15;100199.34;;;32.22;41.48
58070;BME280;43863;52.256;21.048;2022-08-19T11:46:45;100202.38;;;32.29;41.04
58070;BME280;43863;52.256;21.048;2022-08-19T11:49:17;100204.63;;;32.35;41.54
58070;BME280;43863;52.256;21.048;2022-08-19T11:51:46;100199.94;;;32.45;42.15
58070;BME280;43863;52.256;21.048;2022-08-19T11:54:15;100204.47;;;32.49;41.35
58070;BME280;43863;52.256;21.048;2022-08-19T11:56:44;100185.22;;;32.49;42.10
58070;BME280;43863;52.256;21.048;2022-08-19T11:59:39;100189.28;;;32.52;41.84
58070;BME280;43863;52.256;21.048;2022-08-19T12:02:07;100180.03;;;32.48;41.25
58070;BME280;43863;52.256;21.048;2022-08-19T12:04:34;100169.38;;;32.46;41.06
58070;BME280;43863;52.256;21.048;2022-08-19T12:07:02;100161.94;;;32.38;40.90
58070;BME280;43863;52.256;21.048;2022-08-19T12:09:30;100167.00;;;32.27;40.33
58070;BME280;43863;52.256;21.048;2022-08-19T12:11:59;100167.97;;;32.14;40.13
58070;BME280;43863;52.256;21.048;2022-08-19T12:14:28;100159.06;;;32.17;40.04
58070;BME280;43863;52.256;21.048;2022-08-19T12:16:58;100162.47;;;32.23;40.59
58070;BME280;43863;52.256;21.048;2022-08-19T12:19:28;100158.25;;;32.25;40.50
58070;BME280;43863;52.256;21.048;2022-08-19T12:22:00;100160.19;;;32.33;40.59
58070;BME280;43863;52.256;21.048;2022-08-19T12:24:31;100160.81;;;32.39;40.74
58070;BME280;43863;52.256;21.048;2022-08-19T12:27:00;100162.41;;;32.40;40.67
58070;BME280;43863;52.256;21.048;2022-08-19T12:29:55;100158.38;;;32.37;40.58
58070;BME280;43863;52.256;21.048;2022-08-19T12:32:23;100158.22;;;32.43;40.44
58070;BME280;43863;52.256;21.048;2022-08-19T12:34:52;100157.25;;;32.47;40.08
58070;BME280;43863;52.256;21.048;2022-08-19T12:37:45;100152.88;;;32.46;39.58
58070;BME280;43863;52.256;21.048;2022-08-19T12:40:24;100141.06;;;32.54;40.07
58070;BME280;43863;52.256;21.048;2022-08-19T12:42:53;100151.53;;;32.61;40.26
58070;BME280;43863;52.256;21.048;2022-08-19T12:45:28;100134.69;;;32.62;39.94
58070;BME280;43863;52.256;21.048;2022-08-19T12:47:57;100132.41;;;32.73;40.18
58070;BME280;43863;52.256;21.048;2022-08-19T12:50:49;100120.22;;;32.83;39.92
58070;BME280;43863;52.256;21.048;2022-08-19T12:53:17;100137.38;;;32.80;39.82
58070;BME280;43863;52.256;21.048;2022-08-19T12:55:45;100136.09;;;32.77;39.72
58070;BME280;43863;52.256;21.048;2022-08-19T12:58:12;100129.47;;;32.78;39.64
58070;BME280;43863;52.256;21.048;2022-08-19T13:00:54;100123.31;;;32.81;39.24
58070;BME280;43863;52.256;21.048;2022-08-19T13:03:22;100131.56;;;32.81;39.18
58070;BME280;43863;52.256;21.048;2022-08-19T13:06:02;100125.25;;;32.81;39.09
58070;BME280;43863;52.256;21.048;2022-08-19T13:08:57;100126.38;;;32.80;39.23
58070;BME280;43863;52.256;21.048;2022-08-19T13:11:26;100126.84;;;32.82;39.06
58070;BME280;43863;52.256;21.048;2022-08-19T13:13:54;100123.13;;;32.87;39.22
58070;BME280;43863;52.256;21.048;2022-08-19T13:16:22;100132.31;;;32.91;39.01
58070;BME280;43863;52.256;21.048;2022-08-19T13:18:50;100125.03;;;32.86;39.29
58070;BME280;43863;52.256;21.048;2022-08-19T13:21:22;100124.06;;;32.91;38.43
58070;BME280;43863;52.256;21.048;2022-08-19T13:23:52;100117.47;;;32.83;38.65
58070;BME280;43863;52.256;21.048;2022-08-19T13:26:21;100125.72;;;32.83;38.92
58070;BME280;43863;52.256;21.048;2022-08-19T13:28:49;100128.00;;;32.81;37.98
58070;BME280;43863;52.256;21.048;2022-08-19T13:31:38;100118.78;;;32.77;38.44
58070;BME280;43863;52.256;21.048;2022-08-19T13:34:34;100121.41;;;32.73;38.07
58070;BME280;43863;52.256;21.048;2022-08-19T13:37:04;100120.59;;;32.73;38.17
58070;BME280;43863;52.256;21.048;2022-08-19T13:39:35;100121.88;;;32.75;38.18
58070;BME280;43863;52.256;21.048;2022-08-19T13:42:07;100115.56;;;32.75;38.21
58070;BME280;43863;52.256;21.048;2022-08-19T13:44:37;100115.22;;;32.76;38.18
58070;BME280;43863;52.256;21.048;2022-08-19T13:47:06;100118.28;;;32.83;38.24
58070;BME280;43863;52.256;21.048;2022-08-19T13:49:35;100117.94;;;32.85;38.51
58070;BME280;43863;52.256;21.048;2022-08-19T13:52:04;100120.22;;;32.83;38.10
58070;BME280;43863;52.256;21.048;2022-08-19T13:54:33;100118.59;;;32.82;37.96
58070;BME280;43863;52.256;21.048;2022-08-19T13:57:01;100125.41;;;32.84;38.62
58070;BME280;43863;52.256;21.048;2022-08-19T13:59:29;100118.22;;;32.92;38.14
58070;BME280;43863;52.256;21.048;2022-08-19T14:01:58;100132.44;;;33.03;38.12
58070;BME280;43863;52.256;21.048;2022-08-19T14:04:36;100129.31;;;33.13;38.17
58070;BME280;43863;52.256;21.048;2022-08-19T14:07:25;100128.16;;;33.14;37.69
58070;BME280;43863;52.256;21.048;2022-08-19T14:09:54;100130.13;;;33.14;37.38
58070;BME280;43863;52.256;21.048;2022-08-19T14:12:24;100121.19;;;33.17;37.03
58070;BME280;43863;52.256;21.048;2022-08-19T14:14:55;100131.00;;;33.26;37.02
58070;BME280;43863;52.256;21.048;2022-08-19T14:17:25;100131.13;;;33.30;37.41
58070;BME280;43863;52.256;21.048;2022-08-19T14:20:04;100126.53;;;33.43;37.22
58070;BME280;43863;52.256;21.048;2022-08-19T14:22:39;100134.06;;;33.55;36.55
58070;BME280;43863;52.256;21.048;2022-08-19T14:25:10;100137.22;;;33.65;36.26
58070;BME280;43863;52.256;21.048;2022-08-19T14:27:39;100138.34;;;33.85;36.68
58070;BME280;43863;52.256;21.048;2022-08-19T14:30:12;100136.53;;;34.02;35.92
58070;BME280;43863;52.256;21.048;2022-08-19T14:32:40;100128.47;;;33.84;35.71
58070;BME280;43863;52.256;21.048;2022-08-19T14:35:13;100120.47;;;33.70;35.51
58070;BME280;43863;52.256;21.048;2022-08-19T14:37:45;100123.06;;;33.55;35.88
58070;BME280;43863;52.256;21.048;2022-08-19T14:40:16;100125.50;;;33.47;36.20
58070;BME280;43863;52.256;21.048;2022-08-19T14:42:47;100130.75;;;33.40;36.76
58070;BME280;43863;52.256;21.048;2022-08-19T14:45:16;100112.34;;;33.32;36.80
58070;BME280;43863;52.256;21.048;2022-08-19T14:47:44;100133.13;;;33.21;36.52
58070;BME280;43863;52.256;21.048;2022-08-19T14:50:12;100138.03;;;33.15;36.74